createdAt,value
2022-07-30T00:01:40.498Z,17.30
2022-07-30T00:04:07.294Z,17.20
2022-07-30T00:06:34.008Z,17.30
2022-07-30T00:09:00.684Z,17.30
2022-07-30T00:11:28.213Z,17.40
2022-07-30T00:13:56.091Z,17.30
2022-07-30T00:16:23.022Z,17.30
2022-07-30T00:18:49.928Z,17.20
2022-07-30T00:21:34.659Z,17.30
2022-07-30T00:24:04.626Z,17.30
2022-07-30T00:26:31.585Z,17.20
2022-07-30T00:28:58.248Z,17.20
2022-07-30T00:31:24.968Z,17.20
2022-07-30T00:33:51.691Z,17.10
2022-07-30T00:36:18.333Z,17.10
2022-07-30T00:38:45.089Z,17.10
2022-07-30T00:41:11.878Z,17.10
2022-07-30T00:43:39.352Z,17.10
2022-07-30T00:46:06.219Z,17.10
2022-07-30T00:48:32.918Z,17.10
2022-07-30T00:51:00.094Z,17.00
2022-07-30T00:53:26.922Z,17.00
2022-07-30T00:55:53.591Z,17.00
2022-07-30T00:58:20.235Z,17.00
2022-07-30T01:00:47.031Z,17.00
2022-07-30T01:03:13.769Z,16.90
2022-07-30T01:05:40.466Z,16.90
2022-07-30T01:08:07.141Z,16.90
2022-07-30T01:10:33.849Z,16.90
2022-07-30T01:13:02.132Z,16.90
2022-07-30T01:15:28.962Z,16.90
2022-07-30T01:17:57.878Z,16.90
2022-07-30T01:20:26.831Z,16.90
2022-07-30T01:23:05.041Z,16.90
2022-07-30T01:25:32.195Z,16.80
2022-07-30T01:28:03.730Z,16.80
2022-07-30T01:30:32.771Z,16.80
2022-07-30T01:33:01.828Z,16.90
2022-07-30T01:35:30.785Z,16.90
2022-07-30T01:37:57.668Z,16.90
2022-07-30T01:40:25.289Z,16.90
2022-07-30T01:42:55.014Z,16.90
2022-07-30T01:45:25.615Z,16.90
2022-07-30T01:47:53.214Z,16.80
2022-07-30T01:50:20.312Z,16.80
2022-07-30T01:52:49.132Z,16.70
2022-07-30T01:55:17.602Z,16.70
2022-07-30T01:57:46.988Z,16.70
2022-07-30T02:00:13.893Z,16.70
2022-07-30T02:02:41.620Z,16.70
2022-07-30T02:05:09.324Z,16.80
2022-07-30T02:07:42.284Z,16.70
2022-07-30T02:10:14.571Z,16.70
2022-07-30T02:12:48.479Z,16.80
2022-07-30T02:15:24.048Z,16.80
2022-07-30T02:17:53.784Z,16.70
2022-07-30T02:20:25.112Z,16.70
2022-07-30T02:22:57.324Z,16.80
2022-07-30T02:25:24.014Z,16.70
2022-07-30T02:27:54.645Z,16.70
2022-07-30T02:30:23.704Z,16.70
2022-07-30T02:32:51.203Z,16.70
2022-07-30T02:35:20.070Z,16.80
2022-07-30T02:37:52.575Z,16.80
2022-07-30T02:40:20.094Z,16.50
2022-07-30T02:42:49.043Z,16.60
2022-07-30T02:45:17.911Z,16.60
2022-07-30T02:47:46.209Z,16.60
2022-07-30T02:50:13.459Z,16.60
2022-07-30T02:52:40.479Z,16.60
2022-07-30T02:55:08.436Z,16.60
2022-07-30T02:57:35.761Z,16.60
2022-07-30T03:00:10.570Z,16.70
2022-07-30T03:02:37.714Z,16.70
2022-07-30T03:05:07.600Z,16.70
2022-07-30T03:07:34.871Z,16.70
2022-07-30T03:10:01.919Z,16.70
2022-07-30T03:12:33.004Z,16.70
2022-07-30T03:15:00.028Z,16.70
2022-07-30T03:17:28.379Z,16.80
2022-07-30T03:19:55.714Z,16.60
2022-07-30T03:22:22.703Z,16.70
2022-07-30T03:24:50.544Z,16.50
2022-07-30T03:27:18.212Z,16.60
2022-07-30T03:29:45.959Z,16.60
2022-07-30T03:32:13.860Z,16.60
2022-07-30T03:34:42.268Z,16.60
2022-07-30T03:37:10.695Z,16.60
2022-07-30T03:39:37.777Z,16.70
2022-07-30T03:42:06.575Z,16.70
2022-07-30T03:44:33.978Z,16.60
2022-07-30T03:47:01.313Z,16.70
2022-07-30T03:49:28.393Z,16.60
2022-07-30T03:51:56.549Z,16.60
2022-07-30T03:54:23.528Z,16.60
2022-07-30T03:56:50.202Z,16.50
2022-07-30T03:59:17.211Z,16.60
2022-07-30T04:01:43.987Z,16.60
2022-07-30T04:04:11.289Z,16.60
2022-07-30T04:06:43.042Z,16.60
2022-07-30T04:09:10.691Z,16.70
2022-07-30T04:11:40.771Z,16.70
2022-07-30T04:14:08.712Z,16.60
2022-07-30T04:16:42.107Z,16.60
2022-07-30T04:19:12.544Z,16.60
2022-07-30T04:21:40.386Z,16.60
2022-07-30T04:24:07.934Z,16.60
2022-07-30T04:26:35.897Z,16.60
2022-07-30T04:29:04.229Z,16.60
2022-07-30T04:31:40.724Z,16.50
2022-07-30T04:34:08.160Z,16.80
2022-07-30T04:36:35.897Z,16.60
2022-07-30T04:39:03.460Z,16.40
2022-07-30T04:41:48.720Z,16.60
2022-07-30T04:44:20.095Z,16.60
2022-07-30T04:46:47.677Z,16.60
2022-07-30T04:49:16.080Z,16.50
2022-07-30T04:51:43.293Z,16.60
2022-07-30T04:54:15.315Z,16.60
2022-07-30T04:56:53.182Z,16.60
2022-07-30T04:59:23.337Z,16.60
2022-07-30T05:01:50.562Z,16.50
2022-07-30T05:04:18.404Z,16.50
2022-07-30T05:06:45.862Z,16.60
2022-07-30T05:09:14.905Z,16.60
2022-07-30T05:11:41.588Z,16.70
2022-07-30T05:14:08.243Z,16.80
2022-07-30T05:16:35.903Z,16.70
2022-07-30T05:19:07.709Z,16.70
2022-07-30T05:21:34.694Z,16.60
2022-07-30T05:24:01.378Z,16.70
2022-07-30T05:26:28.182Z,16.70
2022-07-30T05:28:55.234Z,16.70
2022-07-30T05:31:23.921Z,16.70
2022-07-30T05:33:51.693Z,16.80
2022-07-30T05:36:18.885Z,16.60
2022-07-30T05:38:45.736Z,16.80
2022-07-30T05:41:19.110Z,16.80
2022-07-30T05:43:59.210Z,16.80
2022-07-30T05:46:25.939Z,16.90
2022-07-30T05:48:52.902Z,16.90
2022-07-30T05:51:20.886Z,17.00
2022-07-30T05:53:47.729Z,17.00
2022-07-30T05:56:14.562Z,17.00
2022-07-30T05:58:41.279Z,17.00
2022-07-30T06:01:08.530Z,17.10
2022-07-30T06:03:35.319Z,17.10
2022-07-30T06:06:05.292Z,17.20
2022-07-30T06:08:32.232Z,17.20
2022-07-30T06:10:58.959Z,17.10
2022-07-30T06:13:25.712Z,17.20
2022-07-30T06:15:52.654Z,17.30
2022-07-30T06:18:19.414Z,17.20
2022-07-30T06:20:51.996Z,17.20
2022-07-30T06:23:19.637Z,17.20
2022-07-30T06:25:49.944Z,17.30
2022-07-30T06:28:36.538Z,17.30
2022-07-30T06:31:04.214Z,17.20
2022-07-30T06:33:31.031Z,17.20
2022-07-30T06:35:57.724Z,17.20
2022-07-30T06:38:24.395Z,17.20
2022-07-30T06:40:51.167Z,17.10
2022-07-30T06:43:19.640Z,17.10
2022-07-30T06:45:46.358Z,17.10
2022-07-30T06:48:13.116Z,17.10
2022-07-30T06:50:41.583Z,17.20
2022-07-30T06:53:08.306Z,17.20
2022-07-30T06:55:34.969Z,17.20
2022-07-30T06:58:01.819Z,17.10
2022-07-30T07:00:28.523Z,17.10
2022-07-30T07:02:55.441Z,16.90
2022-07-30T07:05:23.726Z,17.00
2022-07-30T07:07:58.607Z,17.00
2022-07-30T07:10:25.954Z,17.10
2022-07-30T07:12:52.770Z,17.10
2022-07-30T07:15:19.518Z,17.20
2022-07-30T07:17:49.378Z,17.30
2022-07-30T07:20:16.086Z,17.50
2022-07-30T07:22:42.734Z,17.60
2022-07-30T07:25:12.138Z,17.80
2022-07-30T07:27:38.894Z,17.90
2022-07-30T07:30:06.398Z,17.90
2022-07-30T07:32:34.415Z,18.00
2022-07-30T07:35:01.570Z,18.10
2022-07-30T07:37:28.283Z,18.20
2022-07-30T07:39:54.959Z,18.30
2022-07-30T07:42:21.936Z,18.40
2022-07-30T07:44:48.611Z,18.50
2022-07-30T07:47:15.262Z,18.60
2022-07-30T07:49:42.027Z,18.60
2022-07-30T07:52:08.694Z,18.70
2022-07-30T07:54:35.403Z,18.60
2022-07-30T07:57:04.531Z,18.50
2022-07-30T07:59:40.020Z,18.40
2022-07-30T08:02:08.267Z,18.30
2022-07-30T08:04:35.596Z,18.30
2022-07-30T08:07:02.971Z,18.30
2022-07-30T08:09:43.550Z,18.20
2022-07-30T08:12:11.802Z,18.20
2022-07-30T08:14:38.554Z,18.20
2022-07-30T08:17:05.821Z,18.10
2022-07-30T08:19:33.060Z,18.10
2022-07-30T08:21:59.922Z,18.10
2022-07-30T08:24:27.000Z,18.00
2022-07-30T08:26:53.731Z,18.10
2022-07-30T08:29:20.494Z,18.00
2022-07-30T08:31:47.648Z,18.00
2022-07-30T08:34:14.671Z,17.90
2022-07-30T08:36:41.547Z,17.90
2022-07-30T08:39:08.894Z,17.90
2022-07-30T08:41:36.470Z,18.00
2022-07-30T08:44:03.366Z,18.10
2022-07-30T08:46:31.490Z,18.20
2022-07-30T08:48:59.833Z,18.30
2022-07-30T08:51:35.578Z,18.30
2022-07-30T08:54:03.610Z,18.20
2022-07-30T08:56:30.698Z,18.20
2022-07-30T08:58:58.276Z,18.20
2022-07-30T09:01:24.941Z,18.20
2022-07-30T09:03:51.978Z,18.10
2022-07-30T09:06:18.901Z,18.10
2022-07-30T09:08:46.023Z,18.10
2022-07-30T09:11:12.925Z,18.10
2022-07-30T09:13:41.811Z,18.10
2022-07-30T09:16:18.801Z,18.00
2022-07-30T09:18:45.499Z,17.90
2022-07-30T09:21:15.124Z,17.70
2022-07-30T09:23:54.931Z,17.60
2022-07-30T09:26:21.704Z,17.50
2022-07-30T09:28:48.995Z,17.40
2022-07-30T09:31:16.800Z,17.40
2022-07-30T09:33:44.809Z,17.30
2022-07-30T09:36:16.347Z,17.30
2022-07-30T09:38:44.710Z,17.20
2022-07-30T09:41:29.103Z,17.20
2022-07-30T09:43:59.612Z,17.20
2022-07-30T09:46:40.860Z,17.10
2022-07-30T09:49:20.276Z,17.20
2022-07-30T09:51:56.228Z,17.20
2022-07-30T09:54:25.392Z,17.10
2022-07-30T09:57:22.717Z,17.10
2022-07-30T09:59:53.763Z,17.10
2022-07-30T10:02:28.611Z,17.10
2022-07-30T10:05:08.910Z,17.10
2022-07-30T10:07:43.613Z,17.00
2022-07-30T10:10:11.100Z,17.10
2022-07-30T10:12:38.986Z,17.20
2022-07-30T10:15:07.253Z,17.20
2022-07-30T10:17:34.426Z,17.30
2022-07-30T10:20:01.133Z,17.20
2022-07-30T10:22:30.175Z,17.20
2022-07-30T10:24:57.451Z,17.10
2022-07-30T10:27:26.331Z,17.20
2022-07-30T10:29:58.867Z,17.20
2022-07-30T10:32:31.685Z,17.20
2022-07-30T10:34:58.380Z,17.20
2022-07-30T10:37:25.563Z,17.30
2022-07-30T10:39:55.062Z,17.30
2022-07-30T10:42:21.699Z,17.20
2022-07-30T10:45:00.766Z,17.20
2022-07-30T10:47:34.570Z,17.20
2022-07-30T10:50:12.464Z,17.20
2022-07-30T10:52:52.778Z,17.30
2022-07-30T10:55:32.990Z,17.20
2022-07-30T10:58:12.353Z,17.10
2022-07-30T11:03:18.223Z,17.00
2022-07-30T11:05:46.553Z,17.10
2022-07-30T11:08:37.136Z,17.10
2022-07-30T11:12:01.625Z,17.10
2022-07-30T11:14:09.266Z,17.20
2022-07-30T11:16:36.964Z,17.40
2022-07-30T11:22:19.494Z,17.60
2022-07-30T11:24:47.626Z,17.80
2022-07-30T11:27:36.239Z,17.90
2022-07-30T11:30:24.278Z,18.10
2022-07-30T11:32:58.058Z,18.30
2022-07-30T11:35:34.837Z,18.50
2022-07-30T11:38:02.472Z,18.60
2022-07-30T11:40:30.927Z,18.40
2022-07-30T11:43:36.311Z,18.40
2022-07-30T11:46:10.462Z,18.30
2022-07-30T11:48:38.487Z,18.30
2022-07-30T11:51:05.496Z,18.30
2022-07-30T11:53:33.124Z,18.30
2022-07-30T11:56:03.803Z,18.40
2022-07-30T11:58:32.308Z,18.40
2022-07-30T12:03:55.863Z,18.20
2022-07-30T12:06:24.119Z,18.10
2022-07-30T12:08:55.112Z,18.00
2022-07-30T12:11:26.717Z,18.00
2022-07-30T12:13:59.947Z,17.90
2022-07-30T12:16:28.050Z,17.90
2022-07-30T12:18:55.260Z,17.80
2022-07-30T12:21:26.755Z,17.80
2022-07-30T12:24:04.672Z,17.90
2022-07-30T12:26:34.536Z,17.90
2022-07-30T12:29:03.459Z,18.00
2022-07-30T12:31:30.787Z,18.20
2022-07-30T12:33:59.247Z,18.40
2022-07-30T12:36:36.002Z,18.50
2022-07-30T12:39:05.146Z,18.70
2022-07-30T12:41:45.112Z,18.80
2022-07-30T12:44:31.912Z,19.00
2022-07-30T12:46:58.875Z,19.00
2022-07-30T12:49:36.870Z,19.20
2022-07-30T12:52:28.420Z,19.20
2022-07-30T12:55:03.686Z,19.20
2022-07-30T12:57:49.124Z,19.30
2022-07-30T13:00:16.399Z,19.20
2022-07-30T13:02:43.258Z,19.20
2022-07-30T13:05:11.656Z,19.20
2022-07-30T13:07:57.804Z,19.30
2022-07-30T13:10:30.077Z,19.20
2022-07-30T13:12:58.435Z,19.30
2022-07-30T13:15:25.269Z,19.30
2022-07-30T13:17:52.008Z,19.20
2022-07-30T13:20:19.052Z,19.20
2022-07-30T13:22:45.764Z,19.10
2022-07-30T13:25:13.097Z,19.10
2022-07-30T13:27:39.908Z,19.10
2022-07-30T13:30:07.014Z,19.20
2022-07-30T13:32:33.893Z,19.20
2022-07-30T13:35:01.800Z,19.30
2022-07-30T13:37:37.791Z,19.30
2022-07-30T13:42:56.271Z,19.60
2022-07-30T13:45:23.016Z,19.80
2022-07-30T13:47:49.683Z,19.90
2022-07-30T13:50:16.432Z,19.90
2022-07-30T13:52:43.146Z,20.10
2022-07-30T13:55:10.374Z,20.50
2022-07-30T13:57:37.083Z,20.50
2022-07-30T14:00:06.828Z,20.40
2022-07-30T14:02:34.283Z,20.40
2022-07-30T14:05:06.948Z,20.40
2022-07-30T14:07:34.307Z,20.20
2022-07-30T14:10:01.102Z,20.10
2022-07-30T14:12:27.837Z,20.10
2022-07-30T14:14:54.611Z,20.10
2022-07-30T14:17:21.364Z,19.90
2022-07-30T14:19:48.080Z,19.90
2022-07-30T14:22:14.768Z,19.90
2022-07-30T14:24:41.418Z,19.80
2022-07-30T14:27:08.083Z,19.80
2022-07-30T14:29:34.826Z,19.80
2022-07-30T14:32:01.549Z,19.90
2022-07-30T14:34:28.410Z,19.80
2022-07-30T14:36:55.191Z,20.00
2022-07-30T14:39:21.955Z,20.10
2022-07-30T14:41:53.538Z,20.10
2022-07-30T14:44:22.918Z,20.10
2022-07-30T14:47:02.075Z,20.10
2022-07-30T14:49:28.942Z,20.10
2022-07-30T14:51:55.666Z,20.10
2022-07-30T14:54:22.794Z,20.10
2022-07-30T14:56:50.417Z,20.00
2022-07-30T14:59:19.343Z,20.00
2022-07-30T15:01:48.003Z,19.90
2022-07-30T15:04:14.984Z,19.90
2022-07-30T15:06:41.944Z,19.80
2022-07-30T15:09:09.036Z,19.80
2022-07-30T15:11:56.657Z,19.80
2022-07-30T15:14:22.653Z,19.80
2022-07-30T15:16:51.810Z,19.80
2022-07-30T15:19:19.063Z,19.80
2022-07-30T15:21:48.210Z,19.80
2022-07-30T15:24:14.926Z,19.90
2022-07-30T15:26:41.634Z,19.80
2022-07-30T15:29:13.198Z,19.70
2022-07-30T15:31:40.279Z,19.60
2022-07-30T15:34:10.878Z,19.70
2022-07-30T15:36:39.029Z,19.60
2022-07-30T15:39:06.709Z,19.50
2022-07-30T15:41:33.584Z,19.50
2022-07-30T15:44:00.285Z,19.50
2022-07-30T15:46:27.170Z,19.60
2022-07-30T15:48:54.107Z,19.60
2022-07-30T15:51:20.763Z,19.70
2022-07-30T15:53:47.442Z,19.70
2022-07-30T15:56:15.778Z,19.70
2022-07-30T15:58:43.694Z,19.70
2022-07-30T16:01:10.741Z,19.70
2022-07-30T16:03:37.529Z,19.60
2022-07-30T16:06:04.302Z,19.50
2022-07-30T16:08:30.954Z,19.50
2022-07-30T16:10:58.427Z,19.40
2022-07-30T16:13:25.112Z,19.30
2022-07-30T16:15:51.799Z,19.20
2022-07-30T16:18:18.513Z,19.20
2022-07-30T16:20:45.222Z,19.10
2022-07-30T16:23:14.178Z,19.20
2022-07-30T16:25:43.711Z,19.10
2022-07-30T16:28:10.410Z,19.10
2022-07-30T16:30:50.779Z,19.00
2022-07-30T16:33:19.057Z,19.00
2022-07-30T16:35:48.974Z,19.00
2022-07-30T16:38:17.507Z,18.90
2022-07-30T16:40:44.556Z,18.90
2022-07-30T16:43:11.499Z,18.90
2022-07-30T16:45:38.268Z,18.80
2022-07-30T16:48:05.355Z,18.90
2022-07-30T16:50:32.250Z,18.90
2022-07-30T16:52:59.381Z,18.90
2022-07-30T16:55:26.278Z,18.90
2022-07-30T16:57:53.108Z,18.80
2022-07-30T17:00:19.959Z,18.90
2022-07-30T17:02:46.663Z,18.80
2022-07-30T17:05:13.886Z,18.90
2022-07-30T17:07:40.920Z,18.90
2022-07-30T17:10:11.063Z,18.80
2022-07-30T17:12:38.576Z,18.80
2022-07-30T17:15:07.197Z,18.70
2022-07-30T17:17:33.957Z,18.70
2022-07-30T17:20:01.965Z,18.70
2022-07-30T17:22:29.089Z,18.60
2022-07-30T17:24:55.749Z,18.60
2022-07-30T17:27:22.450Z,18.60
2022-07-30T17:29:50.527Z,18.60
2022-07-30T17:32:18.228Z,18.60
2022-07-30T17:34:44.924Z,18.60
2022-07-30T17:37:11.725Z,18.50
2022-07-30T17:40:26.985Z,18.50
2022-07-30T17:42:26.316Z,18.40
2022-07-30T17:44:53.016Z,18.40
2022-07-30T17:47:19.759Z,18.30
2022-07-30T17:49:46.454Z,18.30
2022-07-30T17:52:13.380Z,18.20
2022-07-30T17:54:40.302Z,18.20
2022-07-30T17:57:07.248Z,18.20
2022-07-30T17:59:33.963Z,18.10
2022-07-30T18:02:01.248Z,18.10
2022-07-30T18:04:28.230Z,18.00
2022-07-30T18:06:54.953Z,17.90
2022-07-30T18:09:21.757Z,18.00
2022-07-30T18:11:49.091Z,17.90
2022-07-30T18:14:15.832Z,17.80
2022-07-30T18:16:42.490Z,17.80
2022-07-30T18:19:09.168Z,17.80
2022-07-30T18:21:49.673Z,17.80
2022-07-30T18:24:16.460Z,17.70
2022-07-30T18:26:43.191Z,17.60
2022-07-30T18:29:13.947Z,17.60
2022-07-30T18:31:40.815Z,17.60
2022-07-30T18:34:07.497Z,17.60
2022-07-30T18:36:34.230Z,17.60
2022-07-30T18:39:00.873Z,17.50
2022-07-30T18:41:27.543Z,17.50
2022-07-30T18:43:54.239Z,17.50
2022-07-30T18:46:20.974Z,17.40
2022-07-30T18:48:48.597Z,17.40
2022-07-30T18:51:16.007Z,17.40
2022-07-30T18:53:42.675Z,17.30
2022-07-30T18:56:09.413Z,17.30
2022-07-30T18:58:37.996Z,17.20
2022-07-30T19:01:05.005Z,17.10
2022-07-30T19:03:31.796Z,17.10
2022-07-30T19:05:58.472Z,17.10
2022-07-30T19:08:25.134Z,17.00
2022-07-30T19:10:52.573Z,16.90
2022-07-30T19:13:19.333Z,16.80
2022-07-30T19:15:46.049Z,16.80
2022-07-30T19:18:14.522Z,16.70
2022-07-30T19:20:41.360Z,16.70
2022-07-30T19:23:08.280Z,16.70
2022-07-30T19:25:35.726Z,16.60
2022-07-30T19:28:03.981Z,16.70
2022-07-30T19:30:31.411Z,16.60
2022-07-30T19:33:14.014Z,16.60
2022-07-30T19:35:41.935Z,16.60
2022-07-30T19:38:09.923Z,16.60
2022-07-30T19:40:42.183Z,16.60
2022-07-30T19:43:09.517Z,16.60
2022-07-30T19:45:47.308Z,16.60
2022-07-30T19:48:15.727Z,16.60
2022-07-30T19:50:56.764Z,16.60
2022-07-30T19:53:23.611Z,16.60
2022-07-30T19:55:50.844Z,16.50
2022-07-30T19:58:17.969Z,16.40
2022-07-30T20:00:49.654Z,16.50
2022-07-30T20:03:25.304Z,16.30
2022-07-30T20:05:57.042Z,16.20
2022-07-30T20:08:27.097Z,16.20
2022-07-30T20:10:53.870Z,16.10
2022-07-30T20:13:43.844Z,16.10
2022-07-30T20:16:14.308Z,16.00
2022-07-30T20:18:42.180Z,15.90
2022-07-30T20:21:14.612Z,15.90
2022-07-30T20:23:41.984Z,15.90
2022-07-30T20:26:12.923Z,15.90
2022-07-30T20:28:41.056Z,15.80
2022-07-30T20:31:08.615Z,15.80
2022-07-30T20:36:22.472Z,15.70
2022-07-30T20:38:49.364Z,15.70
2022-07-30T20:41:16.310Z,15.60
2022-07-30T20:43:52.089Z,15.60
2022-07-30T20:46:22.878Z,15.50
2022-07-30T20:48:50.952Z,15.50
2022-07-30T20:51:17.811Z,15.50
2022-07-30T20:53:45.217Z,15.40
2022-07-30T20:56:13.509Z,15.40
2022-07-30T20:58:40.956Z,15.40
2022-07-30T21:01:08.359Z,15.30
2022-07-30T21:03:43.543Z,15.30
2022-07-30T21:06:14.950Z,15.30
2022-07-30T21:08:41.703Z,15.20
2022-07-30T21:11:09.765Z,15.20
2022-07-30T21:13:36.979Z,15.20
2022-07-30T21:16:04.229Z,15.10
2022-07-30T21:18:49.222Z,15.10
2022-07-30T21:21:17.691Z,15.10
2022-07-30T21:23:56.568Z,15.10
2022-07-30T21:26:23.520Z,15.10
2022-07-30T21:28:50.271Z,15.10
2022-07-30T21:31:17.471Z,15.00
2022-07-30T21:33:44.393Z,15.00
2022-07-30T21:36:12.499Z,14.90
2022-07-30T21:38:42.683Z,14.90
2022-07-30T21:41:14.361Z,14.90
2022-07-30T21:43:43.294Z,14.90
2022-07-30T21:46:11.243Z,14.90
2022-07-30T21:48:38.286Z,14.90
2022-07-30T21:51:06.826Z,14.90
2022-07-30T21:53:45.990Z,14.90
2022-07-30T21:56:13.720Z,14.70
2022-07-30T21:58:41.250Z,14.80
2022-07-30T22:01:16.629Z,14.70
2022-07-30T22:04:02.683Z,14.80
2022-07-30T22:06:37.987Z,14.70
2022-07-30T22:09:19.242Z,14.70
2022-07-30T22:11:53.061Z,14.60
2022-07-30T22:14:19.768Z,14.50
2022-07-30T22:16:46.945Z,14.50
2022-07-30T22:19:15.160Z,14.50
2022-07-30T22:21:42.554Z,14.40
2022-07-30T22:24:28.815Z,14.40
2022-07-30T22:27:01.663Z,14.40
2022-07-30T22:29:38.217Z,14.40
2022-07-30T22:32:07.820Z,14.40
2022-07-30T22:34:34.806Z,14.50
2022-07-30T22:37:01.497Z,14.50
2022-07-30T22:39:31.612Z,14.50
2022-07-30T22:42:00.855Z,14.50
2022-07-30T22:44:28.087Z,14.40
2022-07-30T22:46:56.454Z,14.40
2022-07-30T22:49:45.682Z,14.40
2022-07-30T22:52:21.682Z,14.50
2022-07-30T22:54:58.705Z,14.40
2022-07-30T22:57:37.585Z,14.40
2022-07-30T23:00:11.034Z,14.30
2022-07-30T23:02:42.347Z,14.20
2022-07-30T23:05:10.197Z,14.20
2022-07-30T23:07:39.790Z,14.10
2022-07-30T23:10:17.408Z,14.10
2022-07-30T23:12:18.143Z,15.80
2022-07-30T23:12:46.936Z,14.10
2022-07-30T23:15:13.900Z,14.00
2022-07-30T23:17:40.728Z,14.10
2022-07-30T23:20:09.777Z,14.10
2022-07-30T23:22:36.768Z,14.20
2022-07-30T23:25:04.359Z,14.20
2022-07-30T23:27:31.092Z,14.10
2022-07-30T23:29:57.888Z,14.00
2022-07-30T23:32:24.691Z,13.90
2022-07-30T23:34:51.411Z,13.90
2022-07-30T23:37:18.215Z,13.90
2022-07-30T23:39:44.936Z,13.90
2022-07-30T23:42:11.871Z,13.90
2022-07-30T23:44:38.763Z,13.90
2022-07-30T23:47:05.801Z,13.90
2022-07-30T23:49:33.120Z,14.00
2022-07-30T23:52:00.027Z,14.00
2022-07-30T23:54:28.821Z,13.90
2022-07-30T23:56:56.286Z,13.80
2022-07-30T23:59:24.148Z,13.80
